Time;durP1;ratioP1;P1;durP2;ratioP2;P2;SDS_P1;SDS_P2;PMS_P1;PMS_P2;Temp;Humidity;BMP_temperature;BMP_pressure;BME280_temperature;BME280_humidity;BME280_pressure;Samples;Min_cycle;Max_cycle;Signal;HPM_P1;HPM_P2
2022/03/08 00:00:21;;;;;;;7.80;5.32;;;3.00;99.10;;;;;;5050818;28;20041;-77
2022/03/08 00:02:47;;;;;;;7.50;5.32;;;3.10;98.90;;;;;;5050720;28;20040;-78
2022/03/08 00:05:12;;;;;;;8.82;5.03;;;3.00;99.00;;;;;;5050761;28;20040;-78
2022/03/08 00:07:38;;;;;;;9.73;5.78;;;3.00;99.20;;;;;;5050293;28;20039;-75
2022/03/08 00:10:06;;;;;;;8.20;4.78;;;2.90;99.40;;;;;;5050579;28;20033;-75
2022/03/08 00:12:31;;;;;;;10.73;6.20;;;2.80;99.80;;;;;;5050503;28;20041;-75
2022/03/08 00:14:57;;;;;;;7.15;5.40;;;2.80;99.90;;;;;;5050461;28;20056;-75
2022/03/08 00:17:22;;;;;;;8.85;5.95;;;2.80;99.90;;;;;;5050314;28;20041;-75
2022/03/08 00:19:48;;;;;;;7.38;5.53;;;2.80;99.90;;;;;;5053401;28;20047;-75
2022/03/08 00:22:14;;;;;;;8.32;5.57;;;2.70;99.90;;;;;;5055457;28;20076;-75
2022/03/08 00:24:39;;;;;;;8.50;5.68;;;2.60;99.90;;;;;;5038931;28;20045;-74
2022/03/08 00:27:05;;;;;;;9.38;6.10;;;2.60;99.90;;;;;;5054214;28;20044;-75
2022/03/08 00:29:30;;;;;;;10.63;6.32;;;2.60;99.90;;;;;;5055251;28;20446;-75
2022/03/08 00:31:56;;;;;;;11.50;6.47;;;2.60;99.90;;;;;;5055301;28;20037;-75
2022/03/08 00:34:22;;;;;;;12.45;5.72;;;2.60;99.90;;;;;;5056308;28;20494;-75
2022/03/08 00:36:47;;;;;;;8.40;6.30;;;2.60;99.90;;;;;;5054109;28;20198;-75
2022/03/08 00:39:13;;;;;;;12.80;6.25;;;2.50;99.90;;;;;;5055116;28;20064;-75
2022/03/08 00:41:38;;;;;;;9.55;6.03;;;2.60;99.90;;;;;;5055150;28;20124;-75
2022/03/08 00:44:07;;;;;;;11.27;5.85;;;2.60;99.90;;;;;;5054963;28;20044;-75
2022/03/08 00:46:33;;;;;;;9.57;6.20;;;2.50;99.90;;;;;;5037690;28;20043;-75
2022/03/08 00:48:58;;;;;;;10.52;6.60;;;2.60;99.90;;;;;;5055632;28;20127;-75
2022/03/08 00:51:25;;;;;;;7.10;5.32;;;2.50;99.90;;;;;;5054820;28;20029;-75
2022/03/08 00:53:51;;;;;;;7.78;5.68;;;2.50;99.90;;;;;;5054900;28;20041;-75
2022/03/08 00:56:16;;;;;;;9.02;5.85;;;2.40;99.90;;;;;;5055111;28;20124;-75
2022/03/08 00:58:42;;;;;;;8.85;6.40;;;2.40;99.90;;;;;;5055607;28;20073;-75
2022/03/08 01:01:08;;;;;;;7.63;5.57;;;2.30;99.90;;;;;;5055146;28;20045;-75
2022/03/08 01:03:34;;;;;;;7.95;6.07;;;2.30;99.90;;;;;;5055893;28;20040;-75
2022/03/08 01:05:59;;;;;;;12.25;6.43;;;2.30;99.90;;;;;;5056153;28;20052;-75
2022/03/08 01:08:25;;;;;;;7.53;5.35;;;2.30;99.90;;;;;;5039515;28;20513;-75
2022/03/08 01:10:51;;;;;;;10.05;6.70;;;2.20;99.90;;;;;;5055901;28;20041;-75
2022/03/08 01:13:17;;;;;;;8.43;5.75;;;2.20;99.90;;;;;;5055293;28;20131;-76
2022/03/08 01:15:43;;;;;;;8.23;5.63;;;2.20;99.90;;;;;;5055950;28;20076;-75
2022/03/08 01:18:09;;;;;;;8.18;5.75;;;2.20;99.90;;;;;;5056114;28;20048;-75
2022/03/08 01:20:34;;;;;;;9.77;6.05;;;2.20;99.90;;;;;;5040458;28;20055;-75
2022/03/08 01:23:00;;;;;;;8.38;6.47;;;2.20;99.90;;;;;;5056378;28;20051;-75
2022/03/08 01:25:26;;;;;;;9.30;6.10;;;2.10;99.90;;;;;;5054940;28;20120;-75
2022/03/08 01:27:52;;;;;;;8.57;6.25;;;2.20;99.90;;;;;;5038921;28;20410;-75
2022/03/08 01:30:20;;;;;;;8.63;5.80;;;2.10;99.90;;;;;;5038706;28;20040;-75
2022/03/08 01:32:45;;;;;;;11.07;6.70;;;2.10;99.90;;;;;;5053382;28;20045;-75
2022/03/08 01:35:11;;;;;;;8.98;6.57;;;2.10;99.90;;;;;;5055137;28;20466;-75
2022/03/08 01:37:38;;;;;;;10.32;7.10;;;2.00;99.90;;;;;;5054625;28;20155;-75
2022/03/08 01:40:05;;;;;;;8.93;6.55;;;2.00;99.90;;;;;;5054185;28;20040;-75
2022/03/08 01:42:31;;;;;;;10.15;6.60;;;2.00;99.90;;;;;;5053923;28;20123;-75
2022/03/08 01:44:56;;;;;;;10.50;6.93;;;1.90;99.90;;;;;;5053794;28;20101;-75
2022/03/08 01:47:25;;;;;;;14.43;8.38;;;1.90;99.90;;;;;;5036408;28;20044;-75
2022/03/08 01:49:52;;;;;;;8.48;6.50;;;1.80;99.90;;;;;;5037758;28;20037;-75
2022/03/08 01:52:20;;;;;;;9.18;7.03;;;1.80;99.90;;;;;;5036879;28;20037;-75
2022/03/08 01:54:46;;;;;;;10.85;7.75;;;1.80;99.90;;;;;;5053414;28;20049;-75
2022/03/08 01:57:12;;;;;;;11.65;7.97;;;1.80;99.90;;;;;;5053196;28;20056;-75
2022/03/08 01:59:38;;;;;;;11.30;7.60;;;1.80;99.90;;;;;;5036664;28;20041;-75
2022/03/08 02:02:05;;;;;;;11.40;7.50;;;1.80;99.90;;;;;;5053744;28;20503;-76
2022/03/08 02:04:30;;;;;;;12.20;7.78;;;1.90;99.90;;;;;;5054129;28;20163;-76
2022/03/08 02:06:56;;;;;;;12.07;7.22;;;1.80;99.90;;;;;;5054504;28;20513;-75
2022/03/08 02:09:22;;;;;;;11.80;8.68;;;1.80;99.90;;;;;;5055543;28;20066;-75
2022/03/08 02:11:48;;;;;;;11.50;7.65;;;1.80;99.90;;;;;;5054670;28;20036;-78
2022/03/08 02:14:18;;;;;;;12.30;8.02;;;1.80;99.90;;;;;;5053861;28;20041;-77
2022/03/08 02:16:45;;;;;;;12.63;7.93;;;1.90;99.90;;;;;;5054383;28;20040;-77
2022/03/08 02:19:12;;;;;;;12.30;8.70;;;1.80;99.90;;;;;;5054386;28;20037;-77
2022/03/08 02:21:38;;;;;;;11.35;8.00;;;1.80;99.90;;;;;;5054479;28;20047;-77
2022/03/08 02:24:04;;;;;;;10.68;7.75;;;1.80;99.90;;;;;;5037450;28;20491;-77
2022/03/08 02:26:31;;;;;;;12.05;7.65;;;1.80;99.90;;;;;;5052671;28;20033;-77
2022/03/08 02:29:01;;;;;;;14.75;8.48;;;1.80;99.90;;;;;;5053633;28;20041;-75
2022/03/08 02:31:27;;;;;;;14.82;9.20;;;1.90;99.90;;;;;;5054181;28;20068;-75
2022/03/08 02:33:52;;;;;;;10.82;8.27;;;1.80;99.90;;;;;;5053781;28;20044;-75
2022/03/08 02:36:18;;;;;;;12.80;8.18;;;1.90;99.90;;;;;;5054788;28;20575;-75
2022/03/08 02:38:44;;;;;;;12.23;8.80;;;1.90;99.90;;;;;;5054951;28;20068;-75
2022/03/08 02:41:10;;;;;;;16.42;10.30;;;1.90;99.90;;;;;;5054279;28;20041;-75
2022/03/08 02:43:35;;;;;;;11.00;7.72;;;1.90;99.90;;;;;;5053890;28;20395;-75
2022/03/08 02:46:01;;;;;;;12.93;8.52;;;1.90;99.90;;;;;;5054451;28;20040;-75
2022/03/08 02:48:28;;;;;;;11.88;8.65;;;1.90;99.90;;;;;;5054603;28;20040;-75
2022/03/08 02:50:54;;;;;;;12.98;9.15;;;1.80;99.90;;;;;;5054963;28;20073;-75
2022/03/08 02:53:19;;;;;;;14.80;9.25;;;1.80;99.90;;;;;;5053971;28;20045;-75
2022/03/08 02:55:45;;;;;;;13.00;8.82;;;1.70;99.90;;;;;;5053293;28;20041;-75
2022/03/08 02:58:11;;;;;;;12.95;8.98;;;1.60;99.90;;;;;;5054781;28;20044;-75
2022/03/08 03:00:37;;;;;;;13.23;9.50;;;1.60;99.90;;;;;;5036911;28;20394;-75
2022/03/08 03:03:04;;;;;;;14.02;8.77;;;1.60;99.90;;;;;;5053866;28;20037;-75
2022/03/08 03:05:30;;;;;;;13.45;9.85;;;1.60;99.90;;;;;;5052607;28;20406;-75
2022/03/08 03:07:56;;;;;;;14.98;9.27;;;1.60;99.90;;;;;;5053947;28;20048;-75
2022/03/08 03:10:23;;;;;;;17.40;9.57;;;1.50;99.90;;;;;;5054467;28;20029;-75
2022/03/08 03:12:49;;;;;;;14.77;9.05;;;1.60;99.90;;;;;;5054061;28;20132;-75
2022/03/08 03:15:16;;;;;;;11.98;8.75;;;1.60;99.90;;;;;;5055362;28;20072;-75
2022/03/08 03:17:42;;;;;;;13.88;8.65;;;1.50;99.90;;;;;;5039163;28;20043;-75
2022/03/08 03:20:09;;;;;;;14.73;9.57;;;1.60;99.90;;;;;;5056256;28;20163;-75
2022/03/08 03:22:35;;;;;;;12.50;9.65;;;1.50;99.90;;;;;;5040149;28;20041;-75
2022/03/08 03:25:01;;;;;;;14.93;9.95;;;1.50;99.90;;;;;;5055525;28;20040;-75
2022/03/08 03:27:27;;;;;;;15.15;9.68;;;1.50;99.90;;;;;;5055527;28;20033;-75
2022/03/08 03:29:53;;;;;;;14.68;10.30;;;1.50;99.90;;;;;;5055267;28;20063;-75
2022/03/08 03:32:19;;;;;;;13.45;9.60;;;1.40;99.90;;;;;;5055272;28;20049;-75
2022/03/08 03:34:45;;;;;;;15.23;11.60;;;1.40;99.90;;;;;;5055040;28;20552;-76
2022/03/08 03:37:11;;;;;;;15.43;9.88;;;1.40;99.90;;;;;;5054543;28;20041;-75
2022/03/08 03:39:37;;;;;;;12.88;9.50;;;1.30;99.90;;;;;;5054785;28;20109;-75
2022/03/08 03:42:03;;;;;;;16.50;10.38;;;1.30;99.90;;;;;;5054533;28;20562;-75
2022/03/08 03:44:29;;;;;;;13.82;9.80;;;1.30;99.90;;;;;;5053629;28;20051;-75
2022/03/08 03:46:54;;;;;;;14.45;10.30;;;1.40;99.90;;;;;;5053308;28;20037;-75
2022/03/08 03:49:20;;;;;;;15.07;10.27;;;1.40;99.90;;;;;;5036698;28;20045;-75
2022/03/08 03:51:47;;;;;;;15.52;11.30;;;1.40;99.90;;;;;;5053155;28;20044;-76
2022/03/08 03:54:12;;;;;;;12.40;9.63;;;1.40;99.90;;;;;;5052793;28;20041;-75
2022/03/08 03:56:38;;;;;;;14.23;10.30;;;1.40;99.90;;;;;;5053240;28;20051;-75
2022/03/08 03:59:04;;;;;;;15.25;10.32;;;1.30;99.90;;;;;;5053843;28;20072;-75
2022/03/08 04:01:29;;;;;;;16.08;10.70;;;1.20;99.90;;;;;;5053917;28;20041;-75
2022/03/08 04:03:55;;;;;;;14.65;10.60;;;1.20;99.90;;;;;;5054919;28;20475;-75
2022/03/08 04:06:21;;;;;;;15.52;10.57;;;1.20;99.90;;;;;;5054302;28;20041;-75
2022/03/08 04:08:46;;;;;;;16.38;9.63;;;1.10;99.90;;;;;;5054644;28;20060;-75
2022/03/08 04:11:12;;;;;;;18.35;12.35;;;1.10;99.90;;;;;;5038085;28;20100;-76
2022/03/08 04:13:37;;;;;;;14.02;10.63;;;1.10;99.90;;;;;;5053104;28;20661;-75
2022/03/08 04:16:04;;;;;;;16.73;10.38;;;1.10;99.90;;;;;;5053937;28;20124;-75
2022/03/08 04:18:29;;;;;;;15.23;10.88;;;1.10;99.90;;;;;;5055810;28;20055;-75
2022/03/08 04:20:55;;;;;;;15.18;10.82;;;1.10;99.90;;;;;;5056270;28;20045;-75
2022/03/08 04:23:20;;;;;;;15.10;10.85;;;1.10;99.90;;;;;;5055187;28;20045;-75
2022/03/08 04:25:46;;;;;;;14.80;10.65;;;1.10;99.90;;;;;;5054537;28;20087;-75
2022/03/08 04:28:11;;;;;;;17.10;11.52;;;1.10;99.90;;;;;;5055251;28;20045;-76
2022/03/08 04:30:37;;;;;;;17.73;11.95;;;1.10;99.90;;;;;;5071179;28;20040;-75
2022/03/08 04:33:02;;;;;;;17.83;10.98;;;1.10;99.90;;;;;;5054278;28;20069;-75
2022/03/08 04:35:28;;;;;;;19.23;11.85;;;1.10;99.90;;;;;;5036768;28;20470;-76
2022/03/08 04:37:53;;;;;;;31.13;14.38;;;1.10;99.90;;;;;;5054387;28;20114;-75
2022/03/08 04:40:19;;;;;;;16.58;12.00;;;1.10;99.90;;;;;;5055549;28;20048;-75
2022/03/08 04:42:46;;;;;;;19.55;11.40;;;1.20;99.90;;;;;;5053035;28;20053;-75
2022/03/08 04:45:13;;;;;;;18.08;11.90;;;1.20;99.90;;;;;;5052742;28;20486;-75
2022/03/08 04:47:38;;;;;;;18.25;11.77;;;1.20;99.90;;;;;;5052670;28;20037;-75
2022/03/08 04:50:09;;;;;;;19.42;12.20;;;1.20;99.90;;;;;;5052921;28;20100;-75
2022/03/08 04:52:35;;;;;;;14.52;11.10;;;1.20;99.90;;;;;;5054350;28;20033;-75
2022/03/08 04:55:01;;;;;;;18.90;12.75;;;1.20;99.90;;;;;;5054763;28;20033;-76
2022/03/08 04:57:26;;;;;;;18.85;13.27;;;1.20;99.90;;;;;;5055112;28;20037;-75
2022/03/08 04:59:52;;;;;;;21.73;12.57;;;1.20;99.90;;;;;;5056313;28;20116;-76
2022/03/08 05:02:18;;;;;;;19.67;13.15;;;1.20;99.90;;;;;;5038123;28;20559;-75
2022/03/08 05:04:43;;;;;;;19.08;12.73;;;1.20;99.90;;;;;;5054315;28;20049;-75
2022/03/08 05:07:09;;;;;;;22.45;12.98;;;1.20;99.90;;;;;;5057845;28;20066;-75
2022/03/08 05:09:34;;;;;;;21.15;12.05;;;1.20;99.90;;;;;;5059396;28;20112;-76
2022/03/08 05:12:00;;;;;;;19.80;12.38;;;1.20;99.90;;;;;;5059750;28;20127;-76
2022/03/08 05:14:26;;;;;;;22.55;14.07;;;1.10;99.90;;;;;;5058401;28;20112;-76
2022/03/08 05:16:52;;;;;;;19.40;11.93;;;1.20;99.90;;;;;;5042366;28;20074;-75
2022/03/08 05:19:18;;;;;;;18.02;12.32;;;1.20;99.90;;;;;;5058040;28;20041;-76
2022/03/08 05:21:44;;;;;;;19.75;13.02;;;1.20;99.90;;;;;;5056775;28;20041;-76
2022/03/08 05:24:10;;;;;;;19.48;12.52;;;1.20;99.90;;;;;;5054817;28;20040;-76
2022/03/08 05:26:37;;;;;;;19.52;12.30;;;1.20;99.90;;;;;;5053824;28;20491;-75
2022/03/08 05:29:07;;;;;;;19.25;12.65;;;1.20;99.90;;;;;;5055664;28;20048;-75
2022/03/08 05:31:33;;;;;;;23.33;14.23;;;1.40;99.90;;;;;;5055310;28;20072;-75
2022/03/08 05:33:58;;;;;;;19.65;12.93;;;1.10;99.90;;;;;;5055191;28;20544;-75
2022/03/08 05:36:24;;;;;;;20.90;13.65;;;1.10;99.90;;;;;;5054723;28;20083;-75
2022/03/08 05:38:50;;;;;;;21.23;13.18;;;1.10;99.90;;;;;;5055681;28;20053;-77
2022/03/08 05:41:15;;;;;;;17.77;11.68;;;1.10;99.90;;;;;;5062665;28;20048;-77
2022/03/08 05:43:41;;;;;;;19.50;11.98;;;1.10;99.90;;;;;;5057174;28;20063;-76
2022/03/08 05:46:07;;;;;;;21.65;13.20;;;1.00;99.90;;;;;;5068715;28;20059;-76
2022/03/08 05:48:32;;;;;;;20.08;12.98;;;1.00;99.90;;;;;;5046912;28;20076;-76
2022/03/08 05:50:58;;;;;;;20.20;12.80;;;1.10;99.90;;;;;;5058073;28;20490;-78
2022/03/08 05:53:24;;;;;;;22.00;13.10;;;1.00;99.90;;;;;;5064020;28;20037;-79
2022/03/08 05:55:49;;;;;;;21.60;12.13;;;1.10;99.90;;;;;;5045114;28;20036;-78
2022/03/08 05:58:15;;;;;;;21.35;13.98;;;1.10;99.90;;;;;;5056892;28;20036;-77
2022/03/08 06:00:41;;;;;;;18.00;12.25;;;1.10;99.90;;;;;;5055830;28;20045;-77
2022/03/08 06:03:07;;;;;;;19.05;11.95;;;1.10;99.90;;;;;;5054810;28;20067;-77
2022/03/08 06:05:32;;;;;;;18.65;12.02;;;1.10;99.90;;;;;;5058623;28;20402;-76
2022/03/08 06:07:58;;;;;;;20.33;13.75;;;1.10;99.90;;;;;;5056994;28;20120;-77
2022/03/08 06:10:24;;;;;;;16.15;11.82;;;1.10;99.90;;;;;;5056918;28;20083;-79
2022/03/08 06:12:49;;;;;;;19.40;12.88;;;1.10;99.90;;;;;;5039868;28;20445;-78
2022/03/08 06:15:15;;;;;;;20.58;12.32;;;1.10;99.90;;;;;;5058563;28;20048;-79
2022/03/08 06:17:41;;;;;;;19.58;11.95;;;1.10;99.90;;;;;;5057104;28;20044;-79
2022/03/08 06:20:07;;;;;;;23.15;12.45;;;1.10;99.90;;;;;;5057596;28;20098;-78
2022/03/08 06:22:32;;;;;;;24.60;12.63;;;1.10;99.90;;;;;;5055544;28;20037;-78
2022/03/08 06:24:58;;;;;;;21.65;12.73;;;1.10;99.90;;;;;;5056875;28;20055;-77
2022/03/08 06:27:24;;;;;;;22.80;13.30;;;1.10;99.90;;;;;;5055937;28;20044;-81
2022/03/08 06:29:51;;;;;;;19.33;13.18;;;1.10;99.90;;;;;;5045713;28;20051;-77
2022/03/08 06:32:20;;;;;;;19.95;12.68;;;1.10;99.90;;;;;;5071165;28;20047;-78
2022/03/08 06:34:46;;;;;;;21.20;12.55;;;1.10;99.90;;;;;;5053479;28;20048;-78
2022/03/08 06:37:12;;;;;;;21.73;11.88;;;1.10;99.90;;;;;;5054916;28;20041;-70
2022/03/08 06:39:38;;;;;;;23.45;12.90;;;1.10;99.90;;;;;;5052026;28;20067;-70
2022/03/08 06:42:04;;;;;;;20.05;11.80;;;1.20;99.90;;;;;;5052390;28;20048;-71
2022/03/08 06:44:31;;;;;;;24.85;12.57;;;1.20;99.90;;;;;;5053266;28;20115;-71
2022/03/08 06:46:57;;;;;;;23.48;12.70;;;1.30;99.90;;;;;;5051556;28;20051;-70
2022/03/08 06:49:23;;;;;;;20.35;12.35;;;1.30;99.90;;;;;;5035309;28;20041;-71
2022/03/08 06:51:49;;;;;;;26.02;14.07;;;1.30;99.90;;;;;;5052792;28;20636;-71
2022/03/08 06:54:14;;;;;;;24.52;13.20;;;1.40;99.90;;;;;;5053177;28;20041;-71
2022/03/08 06:56:40;;;;;;;17.08;11.07;;;1.50;99.90;;;;;;5056086;28;20119;-71
2022/03/08 06:59:06;;;;;;;19.90;12.90;;;1.60;99.90;;;;;;5063140;28;20070;-71
2022/03/08 07:01:32;;;;;;;22.98;13.10;;;1.80;99.90;;;;;;5071741;28;20036;-71
2022/03/08 07:03:57;;;;;;;18.50;12.05;;;1.80;99.90;;;;;;5072611;28;20036;-71
2022/03/08 07:06:23;;;;;;;21.20;12.98;;;1.90;99.90;;;;;;5071018;28;20029;-71
2022/03/08 07:08:50;;;;;;;21.55;12.02;;;2.10;99.90;;;;;;5064380;28;20040;-71
2022/03/08 07:11:16;;;;;;;17.88;11.30;;;2.30;99.90;;;;;;5072310;28;20040;-71
2022/03/08 07:13:42;;;;;;;18.73;11.13;;;2.40;99.90;;;;;;5072548;28;20089;-71
2022/03/08 07:16:08;;;;;;;17.95;11.75;;;2.50;99.90;;;;;;5071858;28;20036;-71
2022/03/08 07:18:33;;;;;;;20.98;12.30;;;2.70;99.90;;;;;;5071457;28;20068;-71
2022/03/08 07:21:00;;;;;;;17.00;12.05;;;2.80;99.90;;;;;;5071191;28;20047;-71
2022/03/08 07:23:26;;;;;;;19.65;11.90;;;3.00;99.90;;;;;;5072333;28;20052;-70
2022/03/08 07:25:51;;;;;;;17.17;11.40;;;3.10;99.90;;;;;;5070540;28;20405;-70
2022/03/08 07:28:17;;;;;;;20.80;11.25;;;3.30;99.90;;;;;;5070955;28;20043;-71
2022/03/08 07:30:43;;;;;;;20.05;11.57;;;3.40;99.90;;;;;;5053237;28;20032;-71
2022/03/08 07:33:08;;;;;;;21.23;11.20;;;3.60;99.90;;;;;;5054269;28;20461;-71
2022/03/08 07:35:34;;;;;;;19.17;12.07;;;3.70;99.90;;;;;;5072048;28;20647;-71
2022/03/08 07:37:59;;;;;;;20.20;12.32;;;3.90;99.90;;;;;;5072088;28;20414;-71
2022/03/08 07:40:25;;;;;;;17.50;12.38;;;4.10;99.50;;;;;;5070943;28;20494;-71
2022/03/08 07:42:51;;;;;;;20.80;11.45;;;4.30;99.10;;;;;;5071965;28;20048;-72
2022/03/08 07:45:17;;;;;;;18.75;11.68;;;4.30;98.40;;;;;;5071618;28;20074;-72
2022/03/08 07:47:42;;;;;;;20.60;11.48;;;4.60;98.20;;;;;;5071923;28;20494;-73
2022/03/08 07:50:08;;;;;;;18.83;11.40;;;4.70;97.60;;;;;;5072142;28;20571;-71
2022/03/08 07:52:34;;;;;;;17.55;11.75;;;4.80;97.10;;;;;;5070594;28;20051;-72
2022/03/08 07:54:59;;;;;;;17.42;11.73;;;4.90;96.60;;;;;;5071835;28;20037;-71
2022/03/08 07:57:25;;;;;;;16.92;10.93;;;5.10;95.60;;;;;;5071470;28;20379;-71
2022/03/08 07:59:51;;;;;;;15.88;10.75;;;5.10;95.00;;;;;;5071659;28;20105;-72
2022/03/08 08:02:16;;;;;;;17.40;11.23;;;5.20;94.10;;;;;;5067081;28;20378;-71
2022/03/08 08:04:42;;;;;;;15.27;11.23;;;5.30;94.10;;;;;;5065232;28;20471;-72
2022/03/08 08:07:07;;;;;;;15.27;10.52;;;5.30;94.10;;;;;;5070357;28;20044;-72
2022/03/08 08:09:33;;;;;;;17.88;11.48;;;5.50;93.20;;;;;;5071796;28;20029;-72
2022/03/08 08:11:59;;;;;;;16.55;10.85;;;5.60;93.10;;;;;;5070090;28;20036;-72
2022/03/08 08:14:25;;;;;;;18.08;11.20;;;5.70;92.50;;;;;;5071720;28;20166;-72
2022/03/08 08:16:51;;;;;;;16.05;11.10;;;5.90;92.50;;;;;;5070097;28;20468;-69
2022/03/08 08:19:17;;;;;;;16.27;10.80;;;5.80;91.70;;;;;;5070508;28;20041;-69
2022/03/08 08:21:43;;;;;;;16.90;10.55;;;5.90;91.40;;;;;;5070267;28;20413;-69
2022/03/08 08:24:08;;;;;;;16.60;10.82;;;6.10;91.20;;;;;;5070434;28;20040;-70
2022/03/08 08:26:34;;;;;;;18.48;11.18;;;6.30;90.70;;;;;;5071062;28;20116;-72
2022/03/08 08:29:00;;;;;;;16.90;10.00;;;6.30;88.40;;;;;;5070322;28;20033;-72
2022/03/08 08:31:28;;;;;;;18.17;11.07;;;6.40;88.40;;;;;;5070251;28;20033;-72
2022/03/08 08:33:54;;;;;;;16.27;10.00;;;6.40;88.10;;;;;;5071624;28;20055;-71
2022/03/08 08:36:20;;;;;;;17.52;10.70;;;6.50;88.10;;;;;;5071202;28;20041;-71
2022/03/08 08:38:46;;;;;;;15.90;10.48;;;6.70;87.90;;;;;;5071543;28;20405;-71
2022/03/08 08:41:11;;;;;;;16.08;10.48;;;6.70;86.90;;;;;;5073123;28;20511;-71
2022/03/08 08:43:37;;;;;;;14.30;8.40;;;6.90;86.70;;;;;;5075558;28;20048;-72
2022/03/08 08:46:03;;;;;;;16.25;10.18;;;7.00;85.20;;;;;;5073706;28;20512;-72
2022/03/08 08:48:29;;;;;;;14.63;8.77;;;7.10;84.20;;;;;;5074165;28;20032;-71
2022/03/08 08:50:55;;;;;;;16.10;9.80;;;7.10;82.90;;;;;;5074015;28;20047;-71
2022/03/08 08:53:22;;;;;;;11.43;8.73;;;7.10;79.90;;;;;;5074309;28;20044;-73
2022/03/08 08:55:48;;;;;;;13.80;8.95;;;7.10;79.70;;;;;;5090672;28;20040;-72
2022/03/08 08:58:14;;;;;;;17.80;10.05;;;7.10;78.90;;;;;;5074403;28;20036;-72
2022/03/08 09:00:39;;;;;;;12.45;9.23;;;7.10;77.70;;;;;;5053628;28;20418;-71
2022/03/08 09:03:09;;;;;;;13.45;9.60;;;7.00;77.70;;;;;;5069863;28;20036;-72
2022/03/08 09:05:35;;;;;;;13.93;9.52;;;7.00;77.60;;;;;;5036864;28;20075;-71
2022/03/08 09:08:01;;;;;;;13.32;9.23;;;7.00;77.30;;;;;;5053638;28;20094;-73
2022/03/08 09:10:27;;;;;;;14.40;9.00;;;6.90;76.70;;;;;;5037090;28;20052;-72
2022/03/08 09:12:53;;;;;;;15.85;9.98;;;6.90;76.60;;;;;;5053672;28;20041;-72
2022/03/08 09:15:19;;;;;;;14.02;9.50;;;6.90;76.70;;;;;;5054547;28;20429;-73
2022/03/08 09:17:45;;;;;;;11.55;8.90;;;7.00;75.70;;;;;;5053411;28;20124;-72
2022/03/08 09:20:12;;;;;;;16.88;8.75;;;6.90;75.70;;;;;;5054747;28;20033;-71
2022/03/08 09:22:39;;;;;;;13.02;9.13;;;7.00;76.30;;;;;;5054660;28;20457;-72
2022/03/08 09:25:05;;;;;;;14.10;10.38;;;6.90;75.50;;;;;;5053294;28;20402;-72
2022/03/08 09:27:30;;;;;;;15.45;9.88;;;6.90;75.50;;;;;;5053026;28;20124;-73
2022/03/08 09:29:56;;;;;;;13.70;10.07;;;6.90;75.80;;;;;;5054628;28;20112;-71
2022/03/08 09:32:23;;;;;;;13.50;8.75;;;7.00;76.30;;;;;;5053511;28;20045;-72
2022/03/08 09:34:48;;;;;;;15.25;9.10;;;7.00;75.50;;;;;;5053236;28;20426;-71
2022/03/08 09:37:14;;;;;;;13.85;9.73;;;7.00;75.00;;;;;;5054016;28;20071;-72
2022/03/08 09:39:40;;;;;;;14.05;9.05;;;7.00;75.30;;;;;;5053269;28;20074;-71
2022/03/08 09:42:06;;;;;;;15.48;9.75;;;6.90;74.80;;;;;;5053102;28;20055;-71
2022/03/08 09:44:32;;;;;;;13.68;8.77;;;7.00;75.30;;;;;;5054324;28;20045;-71
2022/03/08 09:46:57;;;;;;;17.10;10.65;;;7.00;75.20;;;;;;5052669;28;20041;-71
2022/03/08 09:49:23;;;;;;;16.60;10.05;;;7.10;75.70;;;;;;5052939;28;20037;-71
2022/03/08 09:51:52;;;;;;;14.88;9.75;;;7.00;75.00;;;;;;5052559;28;20048;-72
2022/03/08 09:54:17;;;;;;;14.63;9.75;;;7.00;75.30;;;;;;5054005;28;20094;-72
2022/03/08 09:56:43;;;;;;;16.55;10.20;;;7.20;76.30;;;;;;5053864;28;20049;-72
2022/03/08 09:59:09;;;;;;;15.52;9.45;;;7.20;76.10;;;;;;5053949;28;20045;-71
2022/03/08 10:01:35;;;;;;;12.13;8.48;;;7.20;76.40;;;;;;5052699;28;20116;-71
2022/03/08 10:04:01;;;;;;;14.25;8.25;;;7.30;74.30;;;;;;5052596;28;20037;-71
2022/03/08 10:06:41;;;;;;;11.85;8.43;;;7.40;72.80;;;;;;5053335;28;20402;-71
2022/03/08 10:09:14;;;;;;;12.63;8.18;;;7.40;72.30;;;;;;5052588;28;20495;-72
2022/03/08 10:11:40;;;;;;;;;;;7.50;73.20;;;;;;5053006;28;20124;-71
2022/03/08 10:14:10;;;;;;;11.82;6.53;;;7.60;71.40;;;;;;5053455;28;20408;-70
2022/03/08 10:16:47;;;;;;;10.85;8.10;;;7.70;72.50;;;;;;5052037;28;20098;-71
2022/03/08 10:19:13;;;;;;;9.30;6.43;;;7.70;71.10;;;;;;5052679;28;20040;-73
2022/03/08 10:21:51;;;;;;;12.02;7.47;;;7.80;71.00;;;;;;5052611;28;20659;-72
2022/03/08 10:24:20;;;;;;;9.50;7.13;;;7.80;68.50;;;;;;5053526;28;20037;-72
2022/03/08 10:26:58;;;;;;;12.38;6.32;;;7.80;68.70;;;;;;5051844;28;20098;-71
2022/03/08 10:29:36;;;;;;;11.82;6.45;;;7.80;66.90;;;;;;5053687;28;20069;-71
2022/03/08 10:32:09;;;;;;;8.55;6.47;;;7.90;66.40;;;;;;5053319;28;20465;-71
2022/03/08 10:34:39;;;;;;;11.93;7.70;;;7.90;65.70;;;;;;5052419;28;20087;-72
2022/03/08 10:37:14;;;;;;;9.95;6.53;;;8.00;66.90;;;;;;5052832;28;20051;-72
2022/03/08 10:39:51;;;;;;;9.93;6.68;;;8.00;68.00;;;;;;5052186;28;20055;-73
2022/03/08 10:42:23;;;;;;;8.45;6.93;;;8.10;66.70;;;;;;5052040;28;20110;-73
2022/03/08 10:44:50;;;;;;;9.77;6.10;;;8.10;66.00;;;;;;5053066;28;20045;-73
2022/03/08 10:47:16;;;;;;;7.78;5.90;;;8.10;64.00;;;;;;5051577;28;20383;-73
2022/03/08 10:49:56;;;;;;;11.07;6.22;;;8.10;64.10;;;;;;5052931;28;20063;-72
2022/03/08 10:52:34;;;;;;;7.93;5.90;;;8.20;64.80;;;;;;5035066;28;20091;-73
2022/03/08 10:55:18;;;;;;;8.98;5.50;;;8.20;62.80;;;;;;5051889;28;20037;-73
2022/03/08 10:57:50;;;;;;;7.88;5.28;;;8.20;61.90;;;;;;5052667;28;20037;-74
2022/03/08 11:00:17;;;;;;;7.10;5.65;;;8.20;62.60;;;;;;5052842;28;20098;-74
2022/03/08 11:02:49;;;;;;;6.80;4.45;;;8.20;62.20;;;;;;5050999;28;20041;-71
2022/03/08 11:05:15;;;;;;;6.63;5.18;;;8.50;62.90;;;;;;5051370;28;20048;-72
2022/03/08 11:07:41;;;;;;;8.77;4.93;;;8.60;61.70;;;;;;5052225;28;20403;-71
2022/03/08 11:10:09;;;;;;;9.40;5.53;;;8.60;61.10;;;;;;5050360;28;20029;-71
2022/03/08 11:12:35;;;;;;;6.70;5.40;;;8.60;59.70;;;;;;5051373;28;20074;-71
2022/03/08 11:15:02;;;;;;;5.68;4.80;;;8.80;60.40;;;;;;5050967;28;20072;-71
2022/03/08 11:17:28;;;;;;;6.18;4.93;;;8.90;59.60;;;;;;5052510;28;20102;-70
2022/03/08 11:19:56;;;;;;;6.80;4.78;;;9.00;60.00;;;;;;5051136;28;20128;-70
2022/03/08 11:22:23;;;;;;;8.60;5.18;;;9.00;57.80;;;;;;5052238;28;20044;-69
2022/03/08 11:24:51;;;;;;;7.28;4.90;;;9.00;57.50;;;;;;5052207;28;20083;-70
2022/03/08 11:27:18;;;;;;;5.60;4.82;;;9.00;57.80;;;;;;5050119;28;20049;-68
2022/03/08 11:29:44;;;;;;;9.60;5.00;;;9.00;57.10;;;;;;5052068;28;20526;-68
2022/03/08 11:32:17;;;;;;;7.13;5.05;;;9.10;57.70;;;;;;5052117;28;20072;-67
2022/03/08 11:34:54;;;;;;;9.80;5.72;;;9.00;57.10;;;;;;5050717;28;20414;-68
2022/03/08 11:37:23;;;;;;;6.63;5.15;;;9.10;57.40;;;;;;5050126;28;20037;-68
2022/03/08 11:40:10;;;;;;;7.07;4.60;;;9.10;57.90;;;;;;5050827;28;20052;-70
2022/03/08 11:42:41;;;;;;;8.63;4.75;;;9.10;56.90;;;;;;5052053;28;20406;-71
2022/03/08 11:45:11;;;;;;;6.63;4.70;;;9.20;58.60;;;;;;5052143;28;20037;-70
2022/03/08 11:47:44;;;;;;;7.65;4.85;;;9.30;58.70;;;;;;5050529;28;20109;-69
2022/03/08 11:50:28;;;;;;;6.25;4.93;;;9.30;57.60;;;;;;5050589;28;20045;-69
2022/03/08 11:53:07;;;;;;;6.88;4.95;;;9.30;57.60;;;;;;5050718;28;20491;-69
2022/03/08 11:55:43;;;;;;;7.07;4.75;;;9.40;57.80;;;;;;5050294;28;20037;-69
2022/03/08 11:58:16;;;;;;;7.50;4.80;;;9.40;57.60;;;;;;5051268;28;20037;-69
2022/03/08 12:00:44;;;;;;;7.78;4.75;;;9.40;58.00;;;;;;5051134;28;20052;-69
2022/03/08 12:03:34;;;;;;;7.03;5.28;;;9.40;57.40;;;;;;5050600;28;20049;-69
2022/03/08 12:06:01;;;;;;;5.57;4.18;;;9.30;55.70;;;;;;5050204;28;20068;-69
2022/03/08 12:08:29;;;;;;;6.03;4.25;;;9.30;55.20;;;;;;5051925;28;20041;-70
2022/03/08 12:11:01;;;;;;;5.68;3.88;;;9.20;53.80;;;;;;5051538;28;20071;-70
2022/03/08 12:13:27;;;;;;;7.38;4.28;;;9.30;54.70;;;;;;5051820;28;20571;-70
2022/03/08 12:16:08;;;;;;;4.97;3.90;;;9.30;54.50;;;;;;5050640;28;20037;-71
2022/03/08 12:18:57;;;;;;;5.15;3.75;;;9.40;54.40;;;;;;5049529;28;20045;-69
2022/03/08 12:21:23;;;;;;;5.93;4.22;;;9.40;53.90;;;;;;5047633;28;20444;-70
2022/03/08 12:24:04;;;;;;;5.40;4.18;;;9.40;53.50;;;;;;5051225;28;20052;-68
2022/03/08 12:26:33;;;;;;;7.07;4.05;;;9.40;54.00;;;;;;5048181;28;20045;-68
2022/03/08 12:29:26;;;;;;;5.47;3.65;;;9.50;54.10;;;;;;5051205;28;20119;-68
2022/03/08 12:31:57;;;;;;;4.72;3.58;;;9.50;53.60;;;;;;5048715;28;20116;-68
2022/03/08 12:34:39;;;;;;;6.22;4.50;;;9.50;53.50;;;;;;5048459;28;20106;-69
2022/03/08 12:37:13;;;;;;;5.63;4.07;;;9.50;53.30;;;;;;5051043;28;20041;-67
2022/03/08 12:40:03;;;;;;;6.28;4.07;;;9.50;53.70;;;;;;5050012;28;20189;-67
2022/03/08 12:42:42;;;;;;;6.43;4.03;;;9.60;53.60;;;;;;5050702;28;20044;-70
2022/03/08 12:45:21;;;;;;;6.55;4.13;;;9.60;53.80;;;;;;5050038;28;20087;-70